createdAt,value
2023-08-30T00:02:00.410Z,96738.19
2023-08-30T00:04:26.747Z,96733.53
2023-08-30T00:06:53.052Z,96738.06
2023-08-30T00:09:19.357Z,96737.09
2023-08-30T00:11:45.847Z,96734.34
2023-08-30T00:14:12.237Z,96735.41
2023-08-30T00:16:38.563Z,96737.97
2023-08-30T00:19:04.968Z,96741.56
2023-08-30T00:21:31.287Z,96732.84
2023-08-30T00:23:57.591Z,96730.97
2023-08-30T00:26:23.955Z,96733.94
2023-08-30T00:28:50.251Z,96733.47
2023-08-30T00:31:16.600Z,96737.22
2023-08-30T00:33:42.973Z,96741.06
2023-08-30T00:36:09.258Z,96743.28
2023-08-30T00:38:35.546Z,96737.72
2023-08-30T00:41:01.917Z,96728.84
2023-08-30T00:43:28.211Z,96727.94
2023-08-30T00:45:54.601Z,96728.16
2023-08-30T00:48:20.912Z,96733.59
2023-08-30T00:50:47.232Z,96722.34
2023-08-30T00:53:13.569Z,96725.03
2023-08-30T00:55:39.914Z,96729.47
2023-08-30T00:58:06.760Z,96722.97
2023-08-30T01:00:33.414Z,96718.66
2023-08-30T01:02:59.832Z,96717.44
2023-08-30T01:05:26.304Z,96719.13
2023-08-30T01:07:52.656Z,96711.63
2023-08-30T01:10:19.020Z,96710.91
2023-08-30T01:12:45.431Z,96707.44
2023-08-30T01:15:11.771Z,96706.03
2023-08-30T01:17:38.249Z,96697.06
2023-08-30T01:20:04.753Z,96706.03
2023-08-30T01:22:31.069Z,96704.53
2023-08-30T01:24:57.417Z,96702.47
2023-08-30T01:27:23.730Z,96697.72
2023-08-30T01:29:50.021Z,96694.78
2023-08-30T01:32:16.384Z,96700.56
2023-08-30T01:34:42.717Z,96702.81
2023-08-30T01:37:09.026Z,96694.56
2023-08-30T01:39:35.375Z,96698.75
2023-08-30T01:42:01.676Z,96704.91
2023-08-30T01:44:27.958Z,96701.25
2023-08-30T01:46:58.518Z,96702.09
2023-08-30T01:49:24.896Z,96702.81
2023-08-30T01:51:51.228Z,96701.75
2023-08-30T01:54:17.601Z,96701.22
2023-08-30T01:56:43.894Z,96693.00
2023-08-30T01:59:10.186Z,96700.94
2023-08-30T02:01:36.626Z,96700.00
2023-08-30T02:04:02.961Z,96700.59
2023-08-30T02:06:29.251Z,96702.09
2023-08-30T02:08:55.659Z,96691.53
2023-08-30T02:11:21.996Z,96696.53
2023-08-30T02:13:48.308Z,96700.63
2023-08-30T02:16:14.893Z,96700.91
2023-08-30T02:18:41.232Z,96704.19
2023-08-30T02:21:07.669Z,96695.91
2023-08-30T02:23:34.059Z,96702.38
2023-08-30T02:26:00.383Z,96688.94
2023-08-30T02:28:26.677Z,96693.72
2023-08-30T02:30:53.020Z,96690.38
2023-08-30T02:33:19.323Z,96688.75
2023-08-30T02:35:45.626Z,96691.72
2023-08-30T02:38:12.180Z,96698.81
2023-08-30T02:40:38.489Z,96696.94
2023-08-30T02:43:04.825Z,96696.38
2023-08-30T02:45:31.252Z,96696.19
2023-08-30T02:47:57.670Z,96703.81
2023-08-30T02:50:24.009Z,96702.38
2023-08-30T02:52:50.444Z,96704.06
2023-08-30T02:55:16.747Z,96696.16
2023-08-30T02:57:43.049Z,96697.44
2023-08-30T03:00:09.422Z,96702.03
2023-08-30T03:02:35.861Z,96693.75
2023-08-30T03:05:02.237Z,96693.66
2023-08-30T03:07:28.609Z,96693.63
2023-08-30T03:09:54.924Z,96697.22
2023-08-30T03:12:21.243Z,96693.81
2023-08-30T03:14:47.640Z,96684.59
2023-08-30T03:17:13.922Z,96685.53
2023-08-30T03:19:40.260Z,96684.31
2023-08-30T03:22:06.809Z,96686.66
2023-08-30T03:24:33.180Z,96680.81
2023-08-30T03:26:59.485Z,96674.63
2023-08-30T03:29:25.979Z,96675.94
2023-08-30T03:31:52.296Z,96675.50
2023-08-30T03:34:18.602Z,96677.44
2023-08-30T03:36:44.995Z,96671.94
2023-08-30T03:39:11.297Z,96670.09
2023-08-30T03:41:37.601Z,96674.63
2023-08-30T03:44:03.960Z,96670.56
2023-08-30T03:46:30.306Z,96678.38
2023-08-30T03:48:56.597Z,96686.81
2023-08-30T03:51:23.020Z,96682.28
2023-08-30T03:53:49.420Z,96679.28
2023-08-30T03:56:15.793Z,96682.38
2023-08-30T03:58:42.319Z,96676.13
2023-08-30T04:01:08.668Z,96683.34
2023-08-30T04:03:35.049Z,96679.72
2023-08-30T04:06:01.681Z,96680.38
2023-08-30T04:08:28.032Z,96683.63
2023-08-30T04:10:54.337Z,96680.16
2023-08-30T04:13:41.416Z,96684.97
2023-08-30T04:16:27.746Z,96680.91
2023-08-30T04:19:14.554Z,96679.84
2023-08-30T04:22:00.724Z,96686.50
2023-08-30T04:24:27.078Z,96685.56
2023-08-30T04:26:53.444Z,96687.22
2023-08-30T04:29:19.784Z,96688.84
2023-08-30T04:31:46.136Z,96686.75
2023-08-30T04:34:12.459Z,96686.75
2023-08-30T04:36:38.763Z,96684.38
2023-08-30T04:39:05.080Z,96689.31
2023-08-30T04:41:31.402Z,96693.16
2023-08-30T04:43:57.724Z,96694.69
2023-08-30T04:46:24.055Z,96692.66
2023-08-30T04:48:50.363Z,96691.53
2023-08-30T04:51:16.663Z,96689.19
2023-08-30T04:53:42.999Z,96693.47
2023-08-30T04:56:09.341Z,96701.03
2023-08-30T04:58:35.717Z,96700.00
2023-08-30T05:01:02.035Z,96702.91
2023-08-30T05:03:29.975Z,96698.84
2023-08-30T05:06:00.958Z,96703.28
2023-08-30T05:08:27.277Z,96704.88
2023-08-30T05:10:53.568Z,96707.63
2023-08-30T05:13:19.901Z,96717.44
2023-08-30T05:15:46.230Z,96704.59
2023-08-30T05:18:12.850Z,96707.09
2023-08-30T05:20:39.395Z,96714.00
2023-08-30T05:23:05.747Z,96710.50
2023-08-30T05:25:32.072Z,96709.16
2023-08-30T05:27:58.406Z,96702.03
2023-08-30T05:30:24.793Z,96703.28
2023-08-30T05:32:51.238Z,96707.56
2023-08-30T05:35:17.620Z,96707.69
2023-08-30T05:37:43.952Z,96707.69
2023-08-30T05:40:10.247Z,96703.59
2023-08-30T05:42:36.594Z,96708.25
2023-08-30T05:45:02.918Z,96708.81
2023-08-30T05:47:29.405Z,96698.13
2023-08-30T05:49:55.750Z,96702.59
2023-08-30T05:52:22.085Z,96703.38
2023-08-30T05:54:48.521Z,96701.03
2023-08-30T05:57:15.019Z,96709.16
2023-08-30T05:59:41.372Z,96704.22
2023-08-30T06:02:07.768Z,96707.84
2023-08-30T06:04:35.739Z,96712.59
2023-08-30T06:07:02.113Z,96717.84
2023-08-30T06:09:28.401Z,96719.03
2023-08-30T06:11:55.133Z,96719.38
2023-08-30T06:14:21.464Z,96720.50
2023-08-30T06:16:47.809Z,96727.00
2023-08-30T06:19:14.189Z,96729.72
2023-08-30T06:21:42.963Z,96736.63
2023-08-30T06:24:09.277Z,96736.22
2023-08-30T06:26:35.672Z,96732.41
2023-08-30T06:29:04.805Z,96735.19
2023-08-30T06:31:31.884Z,96734.50
2023-08-30T06:33:58.408Z,96734.41
2023-08-30T06:36:24.828Z,96739.13
2023-08-30T06:38:51.193Z,96738.28
2023-08-30T06:41:17.564Z,96736.53
2023-08-30T06:43:43.985Z,96737.94
2023-08-30T06:46:10.539Z,96735.53
2023-08-30T06:48:36.980Z,96739.00
2023-08-30T06:51:04.632Z,96738.34
2023-08-30T06:53:31.012Z,96738.53
2023-08-30T06:55:57.338Z,96744.13
2023-08-30T06:58:23.705Z,96736.94
2023-08-30T07:00:50.045Z,96731.31
2023-08-30T07:03:16.479Z,96745.13
2023-08-30T07:05:43.039Z,96742.09
2023-08-30T07:08:09.660Z,96746.03
2023-08-30T07:10:36.128Z,96742.41
2023-08-30T07:13:02.571Z,96745.91
2023-08-30T07:15:28.925Z,96740.44
2023-08-30T07:17:57.344Z,96742.28
2023-08-30T07:20:25.416Z,96744.47
2023-08-30T07:22:51.758Z,96743.75
2023-08-30T07:25:18.969Z,96746.66
2023-08-30T07:27:45.891Z,96739.25
2023-08-30T07:30:12.268Z,96742.41
2023-08-30T07:32:38.665Z,96743.00
2023-08-30T07:35:05.109Z,96736.66
2023-08-30T07:37:31.542Z,96737.75
2023-08-30T07:39:58.102Z,96745.75
2023-08-30T07:42:25.194Z,96749.25
2023-08-30T07:44:51.560Z,96755.63
2023-08-30T07:47:17.900Z,96752.28
2023-08-30T07:49:44.348Z,96738.75
2023-08-30T07:52:10.720Z,96752.63
2023-08-30T07:54:37.168Z,96747.16
2023-08-30T07:57:08.557Z,96757.28
2023-08-30T07:59:34.932Z,96762.19
2023-08-30T08:02:01.386Z,96766.16
2023-08-30T08:04:27.874Z,96762.88
2023-08-30T08:06:56.813Z,96772.44
2023-08-30T08:09:23.680Z,96771.25
2023-08-30T08:11:52.489Z,96769.06
2023-08-30T08:14:18.892Z,96771.38
2023-08-30T08:16:45.399Z,96771.16
2023-08-30T08:19:11.965Z,96777.88
2023-08-30T08:21:38.286Z,96774.91
2023-08-30T08:24:04.653Z,96769.19
2023-08-30T08:26:31.231Z,96777.66
2023-08-30T08:28:57.644Z,96772.44
2023-08-30T08:31:24.321Z,96769.19
2023-08-30T08:33:50.761Z,96769.28
2023-08-30T08:36:17.540Z,96772.28
2023-08-30T08:38:43.988Z,96772.75
2023-08-30T08:41:10.474Z,96775.69
2023-08-30T08:43:36.913Z,96774.91
2023-08-30T08:46:03.376Z,96770.91
2023-08-30T08:48:29.792Z,96771.47
2023-08-30T08:50:56.252Z,96774.53
2023-08-30T08:53:22.761Z,96781.50
2023-08-30T08:55:49.260Z,96785.13
2023-08-30T08:58:15.597Z,96781.38
2023-08-30T09:00:42.343Z,96790.84
2023-08-30T09:03:09.846Z,96783.88
2023-08-30T09:05:38.352Z,96793.03
2023-08-30T09:08:04.773Z,96793.13
2023-08-30T09:10:31.377Z,96786.50
2023-08-30T09:12:57.811Z,96781.88
2023-08-30T09:15:24.156Z,96783.00
2023-08-30T09:17:51.805Z,96788.16
2023-08-30T09:20:18.130Z,96784.78
2023-08-30T09:22:44.536Z,96780.81
2023-08-30T09:25:12.242Z,96779.88
2023-08-30T09:27:38.588Z,96776.97
2023-08-30T09:30:04.914Z,96780.72
2023-08-30T09:32:32.595Z,96781.34
2023-08-30T09:34:59.022Z,96780.25
2023-08-30T09:37:25.632Z,96778.59
2023-08-30T09:39:51.979Z,96774.97
2023-08-30T09:42:18.539Z,96766.34
2023-08-30T09:44:45.060Z,96779.31
2023-08-30T09:47:11.593Z,96771.47
2023-08-30T09:49:38.057Z,96771.16
2023-08-30T09:52:04.484Z,96770.59
2023-08-30T09:57:00.220Z,96765.59
2023-08-30T09:59:26.537Z,96763.03
2023-08-30T10:01:52.974Z,96756.97
2023-08-30T10:04:19.440Z,96755.09
2023-08-30T10:06:45.837Z,96755.03
2023-08-30T10:09:12.194Z,96758.63
2023-08-30T10:11:39.752Z,96749.13
2023-08-30T10:14:06.056Z,96753.25
2023-08-30T10:16:32.519Z,96753.84
2023-08-30T10:19:05.493Z,96745.13
2023-08-30T10:21:32.338Z,96743.59
2023-08-30T10:23:58.730Z,96744.91
2023-08-30T10:26:25.069Z,96741.97
2023-08-30T10:28:51.354Z,96746.50
2023-08-30T10:31:17.835Z,96747.88
2023-08-30T10:33:44.248Z,96738.81
2023-08-30T10:36:10.558Z,96743.44
2023-08-30T10:38:36.906Z,96737.47
2023-08-30T10:41:03.205Z,96743.06
2023-08-30T10:43:29.838Z,96739.19
2023-08-30T10:45:58.503Z,96736.28
2023-08-30T10:48:25.070Z,96733.03
2023-08-30T10:50:51.387Z,96732.34
2023-08-30T10:53:17.830Z,96730.72
2023-08-30T10:55:44.391Z,96736.47
2023-08-30T10:58:10.834Z,96734.19
2023-08-30T11:00:39.707Z,96734.31
2023-08-30T11:03:06.097Z,96745.97
2023-08-30T11:05:32.615Z,96737.38
2023-08-30T11:08:00.485Z,96731.88
2023-08-30T11:10:26.909Z,96738.88
2023-08-30T11:12:53.413Z,96737.03
2023-08-30T11:15:19.925Z,96728.31
2023-08-30T11:17:46.399Z,96734.34
2023-08-30T11:20:12.956Z,96733.03
2023-08-30T11:22:39.361Z,96730.44
2023-08-30T11:25:05.752Z,96725.59
2023-08-30T11:27:32.152Z,96725.03
2023-08-30T11:29:59.640Z,96734.94
2023-08-30T11:32:25.989Z,96732.81
2023-08-30T11:34:52.360Z,96723.75
2023-08-30T11:37:19.984Z,96727.47
2023-08-30T11:39:46.792Z,96730.50
2023-08-30T11:42:19.079Z,96731.91
2023-08-30T11:44:45.729Z,96731.75
2023-08-30T11:47:17.742Z,96729.84
2023-08-30T11:49:44.155Z,96723.34
2023-08-30T11:52:10.707Z,96721.31
2023-08-30T11:54:39.710Z,96726.75
2023-08-30T11:57:06.166Z,96718.41
2023-08-30T11:59:32.569Z,96727.00
2023-08-30T12:02:01.560Z,96719.34
2023-08-30T12:06:26.442Z,96720.97
2023-08-30T12:08:52.975Z,96715.44
2023-08-30T12:11:19.318Z,96711.78
2023-08-30T12:13:45.718Z,96708.94
2023-08-30T12:16:12.140Z,96706.25
2023-08-30T12:18:38.492Z,96703.34
2023-08-30T12:21:04.904Z,96702.50
2023-08-30T12:23:31.411Z,96704.78
2023-08-30T12:25:57.760Z,96698.88
2023-08-30T12:28:24.119Z,96700.38
2023-08-30T12:30:50.549Z,96700.38
2023-08-30T12:33:17.046Z,96703.94
2023-08-30T12:35:43.503Z,96705.72
2023-08-30T12:38:11.092Z,96700.84
2023-08-30T12:40:37.410Z,96705.75
2023-08-30T12:43:03.753Z,96703.00
2023-08-30T12:45:31.400Z,96707.75
2023-08-30T12:47:57.783Z,96705.66
2023-08-30T12:50:24.181Z,96700.50
2023-08-30T12:52:51.831Z,96700.22
2023-08-30T12:55:18.254Z,96702.56
2023-08-30T12:57:44.617Z,96700.38
2023-08-30T13:00:11.039Z,96709.88
2023-08-30T13:02:37.490Z,96706.50
2023-08-30T13:05:03.983Z,96701.56
2023-08-30T13:07:30.366Z,96696.16
2023-08-30T13:09:56.730Z,96695.19
2023-08-30T13:12:23.168Z,96694.56
2023-08-30T13:14:49.691Z,96698.94
2023-08-30T13:17:16.096Z,96696.69
2023-08-30T13:19:42.497Z,96693.09
2023-08-30T13:22:09.264Z,96696.34
2023-08-30T13:24:35.719Z,96693.56
2023-08-30T13:27:03.417Z,96691.13
2023-08-30T13:29:29.829Z,96688.47
2023-08-30T13:31:56.369Z,96689.34
2023-08-30T13:34:22.943Z,96688.53
2023-08-30T13:36:49.297Z,96695.31
2023-08-30T13:39:15.695Z,96701.06
2023-08-30T13:41:42.107Z,96697.16
2023-08-30T13:44:11.067Z,96691.13
2023-08-30T13:46:37.816Z,96692.44
2023-08-30T13:49:04.381Z,96691.84
2023-08-30T13:51:30.780Z,96689.56
2023-08-30T13:53:57.206Z,96693.53
2023-08-30T13:56:23.765Z,96696.53
2023-08-30T13:58:51.603Z,96695.53
2023-08-30T14:01:17.958Z,96689.72
2023-08-30T14:03:44.318Z,96694.75
2023-08-30T14:06:10.884Z,96689.94
2023-08-30T14:08:37.426Z,96690.91
2023-08-30T14:11:03.963Z,96694.41
2023-08-30T14:13:30.598Z,96691.19
2023-08-30T14:15:57.227Z,96690.88
2023-08-30T14:18:23.809Z,96695.72
2023-08-30T14:20:50.434Z,96691.97
2023-08-30T14:23:17.473Z,96694.06
2023-08-30T14:25:43.905Z,96699.66
2023-08-30T14:28:11.837Z,96696.19
2023-08-30T14:30:38.385Z,96695.03
2023-08-30T14:33:04.723Z,96705.25
2023-08-30T14:35:31.073Z,96706.56
2023-08-30T14:37:57.418Z,96715.50
2023-08-30T14:40:23.772Z,96711.00
2023-08-30T14:42:50.168Z,96709.38
2023-08-30T14:45:16.518Z,96704.78
2023-08-30T14:47:42.857Z,96702.28
2023-08-30T14:50:09.255Z,96705.25
2023-08-30T14:52:35.566Z,96704.22
2023-08-30T14:55:01.910Z,96705.75
2023-08-30T14:57:28.721Z,96699.84
2023-08-30T14:59:55.085Z,96701.50
2023-08-30T15:02:21.597Z,96712.41
2023-08-30T15:04:47.935Z,96719.19
2023-08-30T15:07:14.253Z,96708.72
2023-08-30T15:09:40.545Z,96706.31
2023-08-30T15:12:09.303Z,96718.41
2023-08-30T15:14:36.990Z,96710.13
2023-08-30T15:17:03.328Z,96707.88
2023-08-30T15:19:29.676Z,96715.50
2023-08-30T15:21:55.978Z,96711.38
2023-08-30T15:24:22.297Z,96713.94
2023-08-30T15:26:48.619Z,96712.09
2023-08-30T15:29:14.965Z,96705.00
2023-08-30T15:31:41.322Z,96704.50
2023-08-30T15:34:07.755Z,96711.06
2023-08-30T15:36:34.106Z,96707.38
2023-08-30T15:39:00.407Z,96701.84
2023-08-30T15:41:26.721Z,96716.22
2023-08-30T15:43:53.081Z,96713.41
2023-08-30T15:46:19.376Z,96714.84
2023-08-30T15:48:45.736Z,96717.91
2023-08-30T15:51:22.978Z,96717.53
2023-08-30T15:53:51.021Z,96717.31
2023-08-30T15:56:17.372Z,96719.75
2023-08-30T15:58:43.698Z,96725.84
2023-08-30T16:01:10.090Z,96722.41
2023-08-30T16:03:36.955Z,96717.22
2023-08-30T16:06:03.432Z,96711.63
2023-08-30T16:08:29.773Z,96713.47
2023-08-30T16:10:56.151Z,96715.31
2023-08-30T16:13:22.460Z,96716.97
2023-08-30T16:15:48.806Z,96713.69
2023-08-30T16:18:15.136Z,96721.56
2023-08-30T16:20:41.446Z,96721.63
2023-08-30T16:23:07.929Z,96724.03
2023-08-30T16:25:34.269Z,96720.78
2023-08-30T16:28:00.565Z,96726.50
2023-08-30T16:30:26.974Z,96724.50
2023-08-30T16:32:53.320Z,96732.06
2023-08-30T16:35:19.634Z,96734.66
2023-08-30T16:37:46.077Z,96736.75
2023-08-30T16:40:12.373Z,96731.56
2023-08-30T16:42:38.655Z,96732.53
2023-08-30T16:45:04.977Z,96740.19
2023-08-30T16:47:32.398Z,96739.06
2023-08-30T16:50:00.162Z,96738.25
2023-08-30T16:52:26.593Z,96742.09
2023-08-30T16:54:52.895Z,96739.44
2023-08-30T16:57:19.212Z,96737.41
2023-08-30T16:59:45.585Z,96736.50
2023-08-30T17:02:11.933Z,96743.25
2023-08-30T17:04:38.260Z,96740.78
2023-08-30T17:07:08.027Z,96743.16
2023-08-30T17:09:34.867Z,96746.69
2023-08-30T17:12:01.368Z,96744.91
2023-08-30T17:14:29.123Z,96740.38
2023-08-30T17:19:22.001Z,96747.38
2023-08-30T17:21:52.724Z,96746.81
2023-08-30T17:24:19.445Z,96749.13
2023-08-30T17:26:46.095Z,96744.25
2023-08-30T17:29:13.673Z,96746.34
2023-08-30T17:31:40.011Z,96757.63
2023-08-30T17:34:06.317Z,96753.34
2023-08-30T17:36:36.114Z,96755.75
2023-08-30T17:39:02.513Z,96757.75
2023-08-30T17:41:28.898Z,96754.25
2023-08-30T17:43:55.203Z,96758.34
2023-08-30T17:46:21.584Z,96760.06
2023-08-30T17:48:47.940Z,96762.75
2023-08-30T17:51:14.244Z,96763.94
2023-08-30T17:53:40.567Z,96770.00
2023-08-30T17:56:06.899Z,96770.56
2023-08-30T17:58:33.229Z,96780.28
2023-08-30T18:00:59.554Z,96780.50
2023-08-30T18:03:25.908Z,96786.38
2023-08-30T18:05:52.510Z,96784.88
2023-08-30T18:08:18.854Z,96779.75
2023-08-30T18:10:45.146Z,96789.19
2023-08-30T18:13:11.724Z,96790.13
2023-08-30T18:15:38.216Z,96786.50
2023-08-30T18:18:04.501Z,96796.53
2023-08-30T18:20:30.835Z,96793.03
2023-08-30T18:22:57.150Z,96800.44
2023-08-30T18:25:23.494Z,96803.03
2023-08-30T18:27:49.869Z,96807.09
2023-08-30T18:30:16.943Z,96808.16
2023-08-30T18:32:43.268Z,96812.47
2023-08-30T18:35:10.631Z,96813.16
2023-08-30T18:37:37.157Z,96814.22
2023-08-30T18:40:03.461Z,96822.97
2023-08-30T18:42:29.818Z,96821.81
2023-08-30T18:44:56.224Z,96827.50
2023-08-30T18:47:22.566Z,96836.78
2023-08-30T18:49:48.933Z,96837.88
2023-08-30T18:52:15.432Z,96839.84
2023-08-30T18:54:41.814Z,96837.75
2023-08-30T18:57:09.577Z,96844.75
2023-08-30T18:59:36.767Z,96841.34
2023-08-30T19:02:03.103Z,96845.00
2023-08-30T19:04:29.453Z,96835.75
2023-08-30T19:06:55.920Z,96847.19
2023-08-30T19:09:22.216Z,96847.97
2023-08-30T19:11:48.550Z,96851.03
2023-08-30T19:14:14.968Z,96857.69
2023-08-30T19:16:41.370Z,96851.72
2023-08-30T19:19:07.721Z,96852.78
2023-08-30T19:21:34.063Z,96854.88
2023-08-30T19:24:00.369Z,96860.34
2023-08-30T19:26:26.770Z,96868.72
2023-08-30T19:28:53.491Z,96870.13
2023-08-30T19:31:19.875Z,96878.13
2023-08-30T19:33:46.298Z,96876.06
2023-08-30T19:36:12.627Z,96870.84
2023-08-30T19:38:38.912Z,96872.00
2023-08-30T19:41:05.254Z,96880.34
2023-08-30T19:43:31.576Z,96880.03
2023-08-30T19:45:57.858Z,96876.53
2023-08-30T19:48:24.291Z,96882.72
2023-08-30T19:50:50.621Z,96883.16
2023-08-30T19:53:16.970Z,96885.63
2023-08-30T19:55:43.310Z,96876.41
2023-08-30T19:58:09.694Z,96883.16
2023-08-30T20:00:36.000Z,96897.78
2023-08-30T20:03:02.763Z,96889.09
2023-08-30T20:05:29.124Z,96895.31
2023-08-30T20:07:55.472Z,96894.34
2023-08-30T20:10:21.835Z,96899.22
2023-08-30T20:12:48.132Z,96897.47
2023-08-30T20:15:14.461Z,96897.91
2023-08-30T20:17:40.808Z,96895.25
2023-08-30T20:20:07.226Z,96913.66
2023-08-30T20:22:33.602Z,96915.41
2023-08-30T20:24:59.964Z,96909.69
2023-08-30T20:27:26.296Z,96909.22
2023-08-30T20:29:52.648Z,96908.09
2023-08-30T20:32:18.993Z,96910.06
2023-08-30T20:34:45.311Z,96915.63
2023-08-30T20:37:11.671Z,96921.91
2023-08-30T20:39:37.964Z,96923.56
2023-08-30T20:42:04.271Z,96921.13
2023-08-30T20:44:30.593Z,96923.09
2023-08-30T20:46:56.945Z,96926.03
2023-08-30T20:49:23.253Z,96925.34
2023-08-30T20:51:49.676Z,96931.03
2023-08-30T20:54:16.401Z,96935.09
2023-08-30T20:56:42.722Z,96943.00
2023-08-30T20:59:09.068Z,96943.16
2023-08-30T21:01:35.389Z,96936.94
2023-08-30T21:04:01.832Z,96938.50
2023-08-30T21:06:28.640Z,96938.25
2023-08-30T21:08:55.275Z,96935.91
2023-08-30T21:11:21.606Z,96938.50
2023-08-30T21:13:47.932Z,96938.03
2023-08-30T21:16:14.288Z,96942.31
2023-08-30T21:18:40.760Z,96944.41
2023-08-30T21:21:07.082Z,96942.56
2023-08-30T21:23:33.464Z,96940.25
2023-08-30T21:25:59.772Z,96943.22
2023-08-30T21:28:26.144Z,96949.88
2023-08-30T21:30:52.628Z,96945.78
2023-08-30T21:33:19.066Z,96945.56
2023-08-30T21:35:45.588Z,96941.47
2023-08-30T21:38:11.925Z,96932.88
2023-08-30T21:40:38.256Z,96946.75
2023-08-30T21:43:04.741Z,96952.78
2023-08-30T21:45:31.041Z,96950.97
2023-08-30T21:47:57.382Z,96946.38
2023-08-30T21:50:24.159Z,96945.31
2023-08-30T21:52:50.527Z,96941.94
2023-08-30T21:55:16.898Z,96943.22
2023-08-30T21:57:43.251Z,96951.13
2023-08-30T22:00:09.578Z,96948.34
2023-08-30T22:02:35.956Z,96954.78
2023-08-30T22:05:02.814Z,96960.22
2023-08-30T22:07:29.143Z,96949.66
2023-08-30T22:09:55.467Z,96956.88
2023-08-30T22:12:22.209Z,96964.41
2023-08-30T22:14:50.103Z,96953.50
2023-08-30T22:17:16.668Z,96958.94
2023-08-30T22:19:42.978Z,96956.31
2023-08-30T22:22:09.351Z,96960.50
2023-08-30T22:24:35.696Z,96956.16
2023-08-30T22:27:02.098Z,96960.25
2023-08-30T22:29:28.463Z,96965.03
2023-08-30T22:31:54.740Z,96966.09
2023-08-30T22:34:21.090Z,96963.88
2023-08-30T22:36:47.471Z,96957.09
2023-08-30T22:39:13.788Z,96954.78
2023-08-30T22:41:41.301Z,96955.59
2023-08-30T22:44:07.656Z,96954.66
2023-08-30T22:46:33.980Z,96960.50
2023-08-30T22:49:00.342Z,96958.63
2023-08-30T22:51:26.723Z,96958.28
2023-08-30T22:53:53.041Z,96956.78
2023-08-30T22:56:19.398Z,96958.53
2023-08-30T22:58:45.839Z,96954.09
2023-08-30T23:01:12.208Z,96955.59
2023-08-30T23:03:38.653Z,96950.91
2023-08-30T23:06:05.010Z,96946.50
2023-08-30T23:08:31.323Z,96948.03
2023-08-30T23:10:57.732Z,96953.16
2023-08-30T23:13:24.085Z,96952.91
2023-08-30T23:15:50.395Z,96961.28
2023-08-30T23:18:16.785Z,96954.78
2023-08-30T23:20:43.112Z,96953.50
2023-08-30T23:23:09.631Z,96951.97
2023-08-30T23:25:36.269Z,96956.41
2023-08-30T23:28:02.640Z,96958.00
2023-08-30T23:30:29.032Z,96963.38
2023-08-30T23:32:55.611Z,96962.00
2023-08-30T23:35:21.932Z,96967.81
2023-08-30T23:37:48.244Z,96975.13
2023-08-30T23:40:14.605Z,96977.34
2023-08-30T23:42:40.936Z,96983.16
2023-08-30T23:45:07.269Z,96992.28
2023-08-30T23:47:33.648Z,96996.66
2023-08-30T23:50:00.020Z,96988.63
2023-08-30T23:52:26.326Z,96988.84
2023-08-30T23:54:52.629Z,96991.53
2023-08-30T23:57:18.961Z,96993.75
2023-08-30T23:59:45.285Z,96992.63
